Time;durP1;ratioP1;P1;durP2;ratioP2;P2;SDS_P1;SDS_P2;PMS_P1;PMS_P2;Temp;Humidity;BMP_temperature;BMP_pressure;BME280_temperature;BME280_humidity;BME280_pressure;Samples;Min_cycle;Max_cycle;Signal;HPM_P1;HPM_P2
2022/06/15 00:01:03;;;;;;;8.73;2.70;;;13.40;99.90;;;;;;4981533;28;20541;-81
2022/06/15 00:03:32;;;;;;;9.50;2.53;;;13.40;99.90;;;;;;4982844;28;20204;-83
2022/06/15 00:06:12;;;;;;;7.53;2.70;;;13.50;99.90;;;;;;4978597;28;20180;-81
2022/06/15 00:08:39;;;;;;;8.17;2.90;;;13.40;99.90;;;;;;4981708;28;20712;-82
2022/06/15 00:11:27;;;;;;;12.67;3.10;;;13.50;99.90;;;;;;4981397;28;20660;-80
2022/06/15 00:13:54;;;;;;;5.27;2.60;;;13.50;99.90;;;;;;4973315;28;20209;-81
2022/06/15 00:16:22;;;;;;;7.13;2.90;;;13.40;99.90;;;;;;4985419;28;20211;-82
2022/06/15 00:18:48;;;;;;;7.80;3.03;;;13.20;99.90;;;;;;4980767;28;20248;-82
2022/06/15 00:21:16;;;;;;;6.90;3.03;;;13.20;99.90;;;;;;4987251;28;20196;-82
2022/06/15 00:23:42;;;;;;;9.10;3.13;;;13.10;99.90;;;;;;4983562;28;20671;-81
2022/06/15 00:26:08;;;;;;;8.60;3.13;;;13.00;99.90;;;;;;4982220;28;20525;-82
2022/06/15 00:28:35;;;;;;;8.80;2.73;;;13.20;99.90;;;;;;4982395;28;20584;-81
2022/06/15 00:31:01;;;;;;;12.23;3.20;;;13.10;99.90;;;;;;4982440;28;20227;-81
2022/06/15 00:33:28;;;;;;;8.60;3.00;;;13.30;99.90;;;;;;4982387;28;20225;-81
2022/06/15 00:36:19;;;;;;;10.07;3.03;;;13.10;99.90;;;;;;4982049;28;20203;-82
2022/06/15 00:38:50;;;;;;;8.90;2.90;;;13.10;99.90;;;;;;4974570;28;20219;-81
2022/06/15 00:41:34;;;;;;;9.30;3.20;;;13.10;99.90;;;;;;4982575;28;20169;-81
2022/06/15 00:44:16;;;;;;;11.70;3.00;;;13.00;99.90;;;;;;4975862;28;20207;-81
2022/06/15 00:46:43;;;;;;;6.30;2.77;;;12.90;99.90;;;;;;4982690;28;20632;-82
2022/06/15 00:49:16;;;;;;;4.57;2.90;;;12.70;99.90;;;;;;4981404;28;20250;-82
2022/06/15 00:51:43;;;;;;;8.80;3.17;;;12.60;99.90;;;;;;4981175;28;20196;-81
2022/06/15 00:54:09;;;;;;;12.00;3.43;;;12.50;99.90;;;;;;4981390;28;20202;-81
2022/06/15 00:56:37;;;;;;;5.20;2.93;;;12.60;99.90;;;;;;4981674;28;20725;-81
2022/06/15 00:59:28;;;;;;;4.97;3.03;;;12.60;99.90;;;;;;4987075;28;20175;-81
2022/06/15 01:01:53;;;;;;;7.63;2.60;;;12.70;99.90;;;;;;4978761;28;20199;-81
2022/06/15 01:04:21;;;;;;;15.77;3.20;;;12.60;99.90;;;;;;4981805;28;20174;-81
2022/06/15 01:06:56;;;;;;;8.90;3.30;;;12.60;99.90;;;;;;4981915;28;20222;-82
2022/06/15 01:09:26;;;;;;;4.77;3.13;;;12.60;99.90;;;;;;4981517;28;20170;-81
2022/06/15 01:12:18;;;;;;;7.90;3.47;;;12.70;99.90;;;;;;4979885;28;20191;-81
2022/06/15 01:14:50;;;;;;;8.53;3.20;;;12.70;99.90;;;;;;4985741;28;20206;-81
2022/06/15 01:17:40;;;;;;;13.63;3.50;;;12.70;99.90;;;;;;4981138;28;20214;-82
2022/06/15 01:20:32;;;;;;;8.37;3.43;;;12.60;99.90;;;;;;4988423;28;20173;-81
2022/06/15 01:23:07;;;;;;;7.70;3.10;;;12.40;99.90;;;;;;4970436;28;20295;-81
2022/06/15 01:25:39;;;;;;;9.23;3.43;;;12.30;99.90;;;;;;4987652;28;20270;-80
2022/06/15 01:28:37;;;;;;;7.03;3.70;;;12.40;99.90;;;;;;4988703;28;20232;-81
2022/06/15 01:31:30;;;;;;;8.50;3.00;;;12.30;99.90;;;;;;4985631;28;20171;-82
2022/06/15 01:34:08;;;;;;;8.40;3.10;;;12.40;99.90;;;;;;4984758;28;20175;-81
2022/06/15 01:36:52;;;;;;;9.63;3.60;;;12.40;99.90;;;;;;4986295;28;20219;-81
2022/06/15 01:39:23;;;;;;;8.17;3.20;;;12.40;99.90;;;;;;4985770;28;20261;-81
2022/06/15 01:42:10;;;;;;;6.50;3.37;;;12.20;99.90;;;;;;4986419;28;20195;-82
2022/06/15 01:44:41;;;;;;;6.03;3.40;;;12.30;99.90;;;;;;4982665;28;20176;-82
2022/06/15 01:47:12;;;;;;;12.37;3.50;;;12.30;99.90;;;;;;4985909;28;20183;-82
2022/06/15 01:50:00;;;;;;;7.63;3.63;;;12.30;99.90;;;;;;4985701;28;20176;-81
2022/06/15 01:52:31;;;;;;;5.90;3.30;;;12.20;99.90;;;;;;4983486;28;20199;-82
2022/06/15 01:55:02;;;;;;;10.87;3.50;;;12.00;99.90;;;;;;4983843;28;20664;-82
2022/06/15 01:57:30;;;;;;;6.57;2.97;;;12.00;99.90;;;;;;4984267;28;20637;-82
2022/06/15 02:00:04;;;;;;;6.10;3.27;;;12.00;99.90;;;;;;4983508;28;20172;-82
2022/06/15 02:03:11;;;;;;;12.07;3.40;;;12.10;99.90;;;;;;4985229;28;20203;-83
2022/06/15 02:05:49;;;;;;;7.33;2.83;;;12.20;99.90;;;;;;4985254;28;20254;-81
2022/06/15 02:08:37;;;;;;;7.53;3.00;;;12.30;99.90;;;;;;4984851;28;20230;-81
2022/06/15 02:11:15;;;;;;;8.67;3.50;;;12.10;99.90;;;;;;4985282;28;20195;-82
2022/06/15 02:14:01;;;;;;;7.90;3.00;;;12.00;99.90;;;;;;4985930;28;20227;-80
2022/06/15 02:16:52;;;;;;;6.73;3.53;;;12.00;99.90;;;;;;4987472;28;20642;-81
2022/06/15 02:19:23;;;;;;;10.60;3.20;;;12.10;99.90;;;;;;4979054;28;20211;-81
2022/06/15 02:21:52;;;;;;;7.73;3.10;;;12.10;99.90;;;;;;4984401;28;20565;-81
2022/06/15 02:24:21;;;;;;;10.97;3.00;;;12.00;99.90;;;;;;4983080;28;20177;-80
2022/06/15 02:26:49;;;;;;;6.97;3.07;;;12.00;99.90;;;;;;4984289;28;20552;-81
2022/06/15 02:29:28;;;;;;;14.03;3.33;;;12.00;99.90;;;;;;4984138;28;20562;-81
2022/06/15 02:31:55;;;;;;;8.67;2.87;;;12.00;99.90;;;;;;4983512;28;20632;-82
2022/06/15 02:34:21;;;;;;;8.57;3.13;;;12.10;99.90;;;;;;4982740;28;20223;-81
2022/06/15 02:36:47;;;;;;;4.80;3.00;;;12.00;99.90;;;;;;4982745;28;20548;-81
2022/06/15 02:39:13;;;;;;;8.67;3.30;;;11.90;99.90;;;;;;4983973;28;20172;-82
2022/06/15 02:41:39;;;;;;;5.40;3.50;;;12.00;99.90;;;;;;4983812;28;20191;-82
2022/06/15 02:44:08;;;;;;;6.40;2.80;;;12.00;99.90;;;;;;4985800;28;20168;-81
2022/06/15 02:46:43;;;;;;;6.50;2.70;;;11.90;99.90;;;;;;4987108;28;20266;-82
2022/06/15 02:49:09;;;;;;;9.80;2.90;;;12.00;99.90;;;;;;4983771;28;20787;-81
2022/06/15 02:51:51;;;;;;;6.63;3.30;;;11.90;99.90;;;;;;4985184;28;20200;-81
2022/06/15 02:54:31;;;;;;;6.80;3.17;;;11.90;99.90;;;;;;4983013;28;20630;-80
2022/06/15 02:56:57;;;;;;;5.57;2.93;;;11.90;99.90;;;;;;4973115;28;20176;-80
2022/06/15 02:59:23;;;;;;;9.40;3.10;;;11.90;99.90;;;;;;4984651;28;20238;-82
2022/06/15 03:01:49;;;;;;;13.47;4.00;;;11.80;99.90;;;;;;4980644;28;20233;-81
2022/06/15 03:04:15;;;;;;;8.83;3.67;;;11.80;99.90;;;;;;4979304;28;20207;-81
2022/06/15 03:06:40;;;;;;;11.40;3.53;;;11.80;99.90;;;;;;4992199;28;20200;-83
2022/06/15 03:09:06;;;;;;;6.97;3.80;;;11.80;99.90;;;;;;4982274;28;20205;-81
2022/06/15 03:11:32;;;;;;;11.50;4.13;;;11.80;99.90;;;;;;4978569;28;20231;-81
2022/06/15 03:13:58;;;;;;;14.03;3.80;;;11.70;99.90;;;;;;4983554;28;20286;-81
2022/06/15 03:16:24;;;;;;;6.47;3.50;;;11.70;99.90;;;;;;4984052;28;20202;-82
2022/06/15 03:18:50;;;;;;;6.33;3.53;;;11.60;99.90;;;;;;4987496;28;20167;-81
2022/06/15 03:21:15;;;;;;;8.77;3.97;;;11.70;99.90;;;;;;4978298;28;20174;-83
2022/06/15 03:23:41;;;;;;;7.93;4.03;;;11.60;99.90;;;;;;4983301;28;20170;-82
2022/06/15 03:26:07;;;;;;;9.87;4.23;;;11.50;99.90;;;;;;4985793;28;20177;-81
2022/06/15 03:28:36;;;;;;;7.80;3.73;;;11.60;99.90;;;;;;4982089;28;20640;-81
2022/06/15 03:31:02;;;;;;;7.90;3.70;;;11.60;99.90;;;;;;4986238;28;20753;-81
2022/06/15 03:33:27;;;;;;;8.73;4.20;;;11.60;99.90;;;;;;4987851;28;20734;-80
2022/06/15 03:35:53;;;;;;;9.00;3.87;;;11.60;99.90;;;;;;4982597;28;20290;-81
2022/06/15 03:38:19;;;;;;;9.67;4.07;;;11.50;99.90;;;;;;4980977;28;20197;-81
2022/06/15 03:40:47;;;;;;;11.90;3.93;;;11.60;99.90;;;;;;4988073;28;20547;-82
2022/06/15 03:43:13;;;;;;;6.53;3.83;;;11.50;99.90;;;;;;4985913;28;20184;-81
2022/06/15 03:45:42;;;;;;;9.33;3.60;;;11.60;99.90;;;;;;4983487;28;20259;-81
2022/06/15 03:48:08;;;;;;;13.23;4.23;;;11.60;99.90;;;;;;4986607;28;20185;-81
2022/06/15 03:50:35;;;;;;;10.57;4.87;;;11.60;99.90;;;;;;4980201;28;20175;-82
2022/06/15 03:53:02;;;;;;;9.87;4.33;;;11.60;99.90;;;;;;4986041;28;20197;-81
2022/06/15 03:55:29;;;;;;;9.40;4.43;;;11.60;99.90;;;;;;4986821;28;20633;-82
2022/06/15 03:57:55;;;;;;;14.40;4.93;;;11.70;99.90;;;;;;4981358;28;20197;-81
2022/06/15 04:00:22;;;;;;;9.93;4.50;;;11.50;99.90;;;;;;4986806;28;20230;-81
2022/06/15 04:02:48;;;;;;;11.97;4.70;;;11.70;99.90;;;;;;4985695;28;20194;-81
2022/06/15 04:05:31;;;;;;;11.63;4.80;;;11.70;99.90;;;;;;4989452;28;20531;-82
2022/06/15 04:10:40;;;;;;;11.47;4.67;;;11.70;99.90;;;;;;4988818;28;20203;-80
2022/06/15 04:13:06;;;;;;;9.07;4.47;;;11.90;99.90;;;;;;4982910;28;20675;-81
2022/06/15 04:15:32;;;;;;;7.97;4.57;;;11.90;99.90;;;;;;4986754;28;20191;-80
2022/06/15 04:17:58;;;;;;;8.70;4.37;;;12.00;99.90;;;;;;4976994;28;20261;-81
2022/06/15 04:20:36;;;;;;;11.40;4.70;;;11.90;99.90;;;;;;4976636;28;20231;-81
2022/06/15 04:23:22;;;;;;;10.97;4.63;;;12.10;99.90;;;;;;4981564;28;20226;-81
2022/06/15 04:25:54;;;;;;;12.17;4.30;;;12.20;99.90;;;;;;4975524;28;20180;-81
2022/06/15 04:28:21;;;;;;;7.73;4.00;;;12.30;99.90;;;;;;4982385;28;20190;-80
2022/06/15 04:30:48;;;;;;;11.77;4.20;;;12.70;99.90;;;;;;4980062;28;20257;-80
2022/06/15 04:33:14;;;;;;;11.17;3.60;;;12.80;99.90;;;;;;4984582;28;20204;-82
2022/06/15 04:35:40;;;;;;;7.90;3.50;;;13.10;99.90;;;;;;4981568;28;20266;-80
2022/06/15 04:38:06;;;;;;;7.87;3.10;;;13.30;99.90;;;;;;4980368;28;20203;-79
2022/06/15 04:40:33;;;;;;;7.30;3.20;;;14.00;99.90;;;;;;4986350;28;20172;-81
2022/06/15 04:43:03;;;;;;;7.93;2.87;;;14.30;99.90;;;;;;4984583;28;20214;-81
2022/06/15 04:45:29;;;;;;;9.20;3.00;;;14.20;99.90;;;;;;4962252;28;20176;-81
2022/06/15 04:47:54;;;;;;;9.73;3.10;;;14.60;99.90;;;;;;4985955;28;20183;-81
2022/06/15 04:50:20;;;;;;;6.03;2.90;;;14.40;99.90;;;;;;4983779;28;20171;-82
2022/06/15 04:52:46;;;;;;;4.67;2.57;;;14.60;99.90;;;;;;4984412;28;20191;-79
2022/06/15 04:55:16;;;;;;;10.17;3.03;;;15.00;99.90;;;;;;4983283;28;20187;-82
2022/06/15 04:57:41;;;;;;;6.23;2.97;;;14.60;99.90;;;;;;4984566;28;20164;-82
2022/06/15 05:00:12;;;;;;;5.47;2.90;;;14.50;99.90;;;;;;4977543;28;20172;-82
2022/06/15 05:02:37;;;;;;;4.70;2.73;;;14.50;99.90;;;;;;4981406;28;20195;-82
2022/06/15 05:05:03;;;;;;;10.33;2.87;;;14.80;99.90;;;;;;4988988;28;20179;-83
2022/06/15 05:07:29;;;;;;;6.57;3.10;;;15.20;99.90;;;;;;4978351;28;20600;-82
2022/06/15 05:09:56;;;;;;;7.80;3.20;;;15.60;99.90;;;;;;4980754;28;20179;-83
2022/06/15 05:12:22;;;;;;;5.00;2.70;;;15.60;99.90;;;;;;4988432;28;20242;-82
2022/06/15 05:14:48;;;;;;;10.30;3.08;;;15.60;99.90;;;;;;4990204;28;20203;-81
2022/06/15 05:17:18;;;;;;;8.23;3.10;;;15.70;99.90;;;;;;4982064;28;20534;-82
2022/06/15 05:19:44;;;;;;;7.25;2.90;;;16.20;99.90;;;;;;4979142;28;20168;-83
2022/06/15 05:22:14;;;;;;;3.65;2.60;;;16.00;99.90;;;;;;4980049;28;20274;-82
2022/06/15 05:24:40;;;;;;;7.05;3.00;;;16.10;99.90;;;;;;4980572;28;20266;-83
2022/06/15 05:27:06;;;;;;;6.32;2.70;;;16.40;99.90;;;;;;4984233;28;20172;-82
2022/06/15 05:29:35;;;;;;;8.90;3.50;;;16.70;99.90;;;;;;4975374;28;20180;-83
2022/06/15 05:32:02;;;;;;;5.32;2.60;;;16.70;99.90;;;;;;4975061;28;20199;-81
2022/06/15 05:34:28;;;;;;;7.45;3.08;;;17.00;99.90;;;;;;4981492;28;20540;-83
2022/06/15 05:36:54;;;;;;;7.95;2.80;;;17.10;99.90;;;;;;4980502;28;20175;-82
2022/06/15 05:39:20;;;;;;;5.72;2.70;;;16.90;99.90;;;;;;4982483;28;20250;-83
2022/06/15 05:41:49;;;;;;;8.75;3.10;;;17.10;99.90;;;;;;4991200;28;20258;-84
2022/06/15 05:46:42;;;;;;;9.13;2.97;;;17.70;99.90;;;;;;4979527;28;20168;-83
2022/06/15 05:49:09;;;;;;;6.35;2.60;;;18.00;99.90;;;;;;4987009;28;20246;-81
2022/06/15 05:51:35;;;;;;;8.00;2.80;;;18.20;99.90;;;;;;4986911;28;20601;-81
2022/06/15 05:54:00;;;;;;;7.28;2.90;;;18.00;99.90;;;;;;4981580;28;20176;-81
2022/06/15 05:56:27;;;;;;;8.80;2.60;;;18.70;99.90;;;;;;4983749;28;20688;-80
2022/06/15 05:58:53;;;;;;;4.75;2.40;;;18.70;99.90;;;;;;4990019;28;20199;-83
2022/06/15 06:01:30;;;;;;;9.23;3.20;;;18.70;99.90;;;;;;4989039;28;20172;-82
2022/06/15 06:03:56;;;;;;;6.78;2.80;;;18.80;99.90;;;;;;4995100;28;20174;-83
2022/06/15 06:06:22;;;;;;;12.55;2.90;;;18.60;99.90;;;;;;4986279;28;20172;-83
2022/06/15 06:08:48;;;;;;;13.15;2.72;;;19.20;99.90;;;;;;4986766;28;20704;-81
2022/06/15 06:11:15;;;;;;;7.88;2.70;;;19.30;99.90;;;;;;4995939;28;20182;-83
2022/06/15 06:13:40;;;;;;;4.68;2.63;;;19.70;99.90;;;;;;4988569;28;20191;-81
2022/06/15 06:16:06;;;;;;;7.60;2.78;;;19.50;99.90;;;;;;4986213;28;20202;-85
2022/06/15 06:18:32;;;;;;;6.97;2.80;;;19.40;99.90;;;;;;4996841;28;20175;-81
2022/06/15 06:20:58;;;;;;;6.05;2.25;;;20.00;99.90;;;;;;4996155;28;20179;-83
2022/06/15 06:23:24;;;;;;;5.85;2.80;;;20.60;99.70;;;;;;4996414;28;20690;-82
2022/06/15 06:25:52;;;;;;;4.90;2.85;;;20.40;99.70;;;;;;4996520;28;20183;-83
2022/06/15 06:28:34;;;;;;;6.30;2.80;;;20.50;99.30;;;;;;4996895;28;20167;-83
2022/06/15 06:31:02;;;;;;;9.10;2.55;;;21.00;98.10;;;;;;4995806;28;20266;-83
2022/06/15 06:33:30;;;;;;;11.55;2.90;;;20.80;97.60;;;;;;4995524;28;20206;-83
2022/06/15 06:35:57;;;;;;;7.72;2.60;;;20.80;98.00;;;;;;4995897;28;20203;-81
2022/06/15 06:38:24;;;;;;;6.80;2.78;;;21.10;97.00;;;;;;4997858;28;20171;-83
2022/06/15 06:40:51;;;;;;;8.20;2.90;;;20.80;97.00;;;;;;4997103;28;20655;-83
2022/06/15 06:43:17;;;;;;;5.50;2.63;;;21.00;97.30;;;;;;4995993;28;20741;-82
2022/06/15 06:45:43;;;;;;;8.18;2.80;;;21.20;96.40;;;;;;4997574;28;20179;-81
2022/06/15 06:48:09;;;;;;;7.45;2.85;;;21.40;96.70;;;;;;4997120;28;20172;-79
2022/06/15 06:50:36;;;;;;;6.40;2.88;;;21.60;96.20;;;;;;4998236;28;20171;-79
2022/06/15 06:53:03;;;;;;;6.47;2.40;;;21.60;95.80;;;;;;4996953;28;20202;-81
2022/06/15 06:55:29;;;;;;;7.50;2.70;;;21.90;96.00;;;;;;4995253;28;20238;-82
2022/06/15 06:57:57;;;;;;;9.27;2.35;;;22.00;95.80;;;;;;4997060;28;20648;-82
2022/06/15 07:00:23;;;;;;;4.82;2.00;;;22.00;95.70;;;;;;4996507;28;20168;-82
2022/06/15 07:02:49;;;;;;;5.93;2.58;;;21.70;96.20;;;;;;4996875;28;20226;-82
2022/06/15 07:05:15;;;;;;;5.50;2.35;;;21.60;94.90;;;;;;4995679;28;20262;-80
2022/06/15 07:07:41;;;;;;;6.95;2.60;;;21.60;95.30;;;;;;4995925;28;20210;-79
2022/06/15 07:10:07;;;;;;;8.02;2.75;;;22.00;95.10;;;;;;4994303;28;20187;-80
2022/06/15 07:12:34;;;;;;;5.80;2.40;;;22.70;94.80;;;;;;4993840;28;20214;-83
2022/06/15 07:14:59;;;;;;;5.35;2.63;;;22.90;93.90;;;;;;4994419;28;20207;-83
2022/06/15 07:17:28;;;;;;;12.48;2.50;;;22.60;94.10;;;;;;4996181;28;20579;-83
2022/06/15 07:19:53;;;;;;;5.38;2.65;;;22.00;93.50;;;;;;4994905;28;20187;-83
2022/06/15 07:22:19;;;;;;;6.93;2.97;;;22.20;94.00;;;;;;4994723;28;20263;-80
2022/06/15 07:24:45;;;;;;;10.77;2.53;;;22.90;94.30;;;;;;4997499;28;20263;-82
2022/06/15 07:27:11;;;;;;;5.40;2.50;;;23.30;93.20;;;;;;4995605;28;20176;-83
2022/06/15 07:29:36;;;;;;;7.25;3.28;;;23.30;93.00;;;;;;4993980;28;20171;-82
2022/06/15 07:32:02;;;;;;;7.38;2.78;;;23.50;93.10;;;;;;4992711;28;20203;-83
2022/06/15 07:34:28;;;;;;;6.57;2.60;;;23.90;92.50;;;;;;4994267;28;20206;-81
2022/06/15 07:36:53;;;;;;;7.72;2.78;;;24.10;92.10;;;;;;4997406;28;20204;-84
2022/06/15 07:39:23;;;;;;;3.13;2.15;;;23.40;91.70;;;;;;4997349;28;20168;-83
2022/06/15 07:41:50;;;;;;;6.97;2.53;;;24.10;92.20;;;;;;4999535;28;20230;-84
2022/06/15 07:44:17;;;;;;;6.00;2.60;;;24.30;90.90;;;;;;4997736;28;20231;-83
2022/06/15 07:46:43;;;;;;;4.20;2.30;;;24.10;90.50;;;;;;4996525;28;20182;-83
2022/06/15 07:52:03;;;;;;;15.50;2.60;;;23.80;91.80;;;;;;4999154;28;20257;-83
2022/06/15 07:54:29;;;;;;;7.50;3.05;;;24.10;91.30;;;;;;5003347;28;20177;-83
2022/06/15 07:56:56;;;;;;;7.53;2.10;;;23.70;91.10;;;;;;5001275;28;20210;-84
2022/06/15 07:59:22;;;;;;;6.88;2.85;;;23.90;92.60;;;;;;5000463;28;20543;-84
2022/06/15 08:01:49;;;;;;;8.75;2.28;;;24.60;91.00;;;;;;5001071;28;20198;-83
2022/06/15 08:04:15;;;;;;;6.88;2.42;;;24.60;90.60;;;;;;4999399;28;20172;-84
2022/06/15 08:06:43;;;;;;;9.80;2.92;;;24.00;90.40;;;;;;4994245;28;20187;-81
2022/06/15 08:09:13;;;;;;;7.00;2.40;;;23.70;90.60;;;;;;4994945;28;20179;-82
2022/06/15 08:11:39;;;;;;;6.72;2.15;;;24.30;89.30;;;;;;4996650;28;20257;-83
2022/06/15 08:14:05;;;;;;;8.40;2.72;;;24.50;90.30;;;;;;4998111;28;20214;-82
2022/06/15 08:16:32;;;;;;;6.70;2.65;;;24.10;90.50;;;;;;4997245;28;20199;-83
2022/06/15 08:19:01;;;;;;;7.80;2.60;;;24.10;90.80;;;;;;4995590;28;20175;-82
2022/06/15 08:21:30;;;;;;;5.40;2.58;;;24.60;87.40;;;;;;4995379;28;20192;-82
2022/06/15 08:23:59;;;;;;;8.38;2.20;;;24.70;89.60;;;;;;4993405;28;20167;-81
2022/06/15 08:26:34;;;;;;;5.82;2.38;;;24.80;87.80;;;;;;4994196;28;20171;-82
2022/06/15 08:29:04;;;;;;;6.50;2.13;;;24.90;87.80;;;;;;4994985;28;20229;-83
2022/06/15 08:31:30;;;;;;;5.93;2.30;;;25.30;90.00;;;;;;4995551;28;20778;-84
2022/06/15 08:33:55;;;;;;;8.50;2.42;;;25.00;85.50;;;;;;4995779;28;20175;-82
2022/06/15 08:36:21;;;;;;;6.65;2.17;;;24.90;86.20;;;;;;4995700;28;20207;-82
2022/06/15 08:38:47;;;;;;;6.35;2.03;;;24.80;85.50;;;;;;4995443;28;20183;-82
2022/06/15 08:41:27;;;;;;;11.80;2.80;;;25.30;86.50;;;;;;4993389;28;20233;-82
2022/06/15 08:43:53;;;;;;;6.05;2.25;;;25.90;83.70;;;;;;4995139;28;20226;-81
2022/06/15 08:46:30;;;;;;;8.45;2.30;;;25.40;84.10;;;;;;4995430;28;20184;-82
2022/06/15 08:49:16;;;;;;;8.63;2.72;;;25.10;84.80;;;;;;4996629;28;20632;-82
2022/06/15 08:51:45;;;;;;;5.85;2.38;;;25.70;84.10;;;;;;4994051;28;20211;-82
2022/06/15 08:54:41;;;;;;;7.07;2.40;;;26.40;83.40;;;;;;4995346;28;20171;-82
2022/06/15 08:57:24;;;;;;;4.07;2.20;;;26.20;84.40;;;;;;4993034;28;20250;-82
2022/06/15 09:00:09;;;;;;;6.72;2.28;;;25.90;82.40;;;;;;4995607;28;20271;-83
2022/06/15 09:03:01;;;;;;;8.55;2.53;;;25.80;85.30;;;;;;4994517;28;20195;-82
2022/06/15 09:05:45;;;;;;;5.72;2.08;;;26.60;83.20;;;;;;4965148;28;20282;-82
2022/06/15 09:08:28;;;;;;;5.78;2.28;;;26.70;82.30;;;;;;4995371;28;20198;-81
2022/06/15 09:11:03;;;;;;;11.60;2.55;;;26.10;82.60;;;;;;4996439;28;20600;-82
2022/06/15 09:14:04;;;;;;;6.50;2.90;;;26.00;81.10;;;;;;4995458;28;20591;-81
2022/06/15 09:16:49;;;;;;;8.38;2.63;;;25.80;84.10;;;;;;4987753;28;20206;-81
2022/06/15 09:19:22;;;;;;;9.30;2.72;;;25.40;82.70;;;;;;4995611;28;20314;-84
2022/06/15 09:21:54;;;;;;;4.95;2.20;;;25.40;84.50;;;;;;4994209;28;20199;-82
2022/06/15 09:24:50;;;;;;;12.63;2.72;;;26.40;83.40;;;;;;4995138;28;20195;-82
2022/06/15 09:27:43;;;;;;;10.00;2.70;;;27.10;81.00;;;;;;4994769;28;20168;-83
2022/06/15 09:30:21;;;;;;;8.38;2.40;;;26.60;80.90;;;;;;4991647;28;20191;-82
2022/06/15 09:33:00;;;;;;;7.40;2.70;;;26.40;80.60;;;;;;4993134;28;20195;-82
2022/06/15 09:35:34;;;;;;;7.50;2.17;;;26.70;80.20;;;;;;4997307;28;20574;-82
2022/06/15 09:38:02;;;;;;;8.60;2.70;;;27.00;80.20;;;;;;4996706;28;20271;-83
2022/06/15 09:40:37;;;;;;;8.07;2.15;;;26.60;80.50;;;;;;4996808;28;20211;-83
2022/06/15 09:43:27;;;;;;;9.40;2.53;;;26.80;81.40;;;;;;4997281;28;20195;-82
2022/06/15 09:46:11;;;;;;;4.38;2.40;;;26.70;81.40;;;;;;4966263;28;20295;-82
2022/06/15 09:48:40;;;;;;;10.88;2.70;;;27.00;79.70;;;;;;4996019;28;20178;-82
2022/06/15 09:51:22;;;;;;;5.28;2.22;;;27.20;81.00;;;;;;4996387;28;20245;-82
2022/06/15 09:54:06;;;;;;;8.88;2.40;;;27.20;81.80;;;;;;4996176;28;20168;-83
2022/06/15 09:56:33;;;;;;;7.68;2.47;;;27.20;80.40;;;;;;4995805;28;20636;-83
2022/06/15 09:59:06;;;;;;;8.88;2.75;;;27.40;78.10;;;;;;4995825;28;20195;-83
2022/06/15 10:01:40;;;;;;;7.32;2.50;;;26.80;78.90;;;;;;4996090;28;20664;-82
2022/06/15 10:04:13;;;;;;;6.93;2.15;;;27.20;79.00;;;;;;4995295;28;20543;-84
2022/06/15 10:06:47;;;;;;;7.28;2.92;;;27.60;79.30;;;;;;4995278;28;20179;-81
2022/06/15 10:09:16;;;;;;;3.90;2.00;;;28.10;77.20;;;;;;4997373;28;20213;-82
2022/06/15 10:11:49;;;;;;;5.28;2.30;;;27.30;80.00;;;;;;4995717;28;20289;-82
2022/06/15 10:14:20;;;;;;;6.10;2.40;;;27.70;78.00;;;;;;4995761;28;20184;-82
2022/06/15 10:17:17;;;;;;;8.30;2.33;;;27.00;77.20;;;;;;4995236;28;20207;-83
2022/06/15 10:19:46;;;;;;;8.35;2.50;;;27.30;77.90;;;;;;4995719;28;20168;-83
2022/06/15 10:22:24;;;;;;;12.40;2.75;;;27.40;76.10;;;;;;4996421;28;20202;-81
2022/06/15 10:24:50;;;;;;;8.02;2.50;;;27.30;77.00;;;;;;4996655;28;20179;-82
2022/06/15 10:27:16;;;;;;;7.65;2.80;;;27.40;77.60;;;;;;4996333;28;20199;-82
2022/06/15 10:29:42;;;;;;;6.30;2.30;;;28.10;73.80;;;;;;4999282;28;20280;-83
2022/06/15 10:32:08;;;;;;;7.05;2.38;;;27.70;75.60;;;;;;4999428;28;20199;-81
2022/06/15 10:35:02;;;;;;;5.55;2.38;;;28.50;75.90;;;;;;4996961;28;20282;-82
2022/06/15 10:37:35;;;;;;;5.85;2.50;;;29.00;74.40;;;;;;4990820;28;20234;-82
2022/06/15 10:40:25;;;;;;;7.65;2.55;;;27.70;75.80;;;;;;5000254;28;20179;-82
2022/06/15 10:42:56;;;;;;;9.13;2.15;;;27.60;78.20;;;;;;4996445;28;20645;-81
2022/06/15 10:45:44;;;;;;;12.85;2.88;;;28.10;76.60;;;;;;4994607;28;20533;-83
2022/06/15 10:48:27;;;;;;;4.30;2.40;;;27.80;74.50;;;;;;4986121;28;20640;-82
2022/06/15 10:51:03;;;;;;;6.78;2.30;;;28.10;74.40;;;;;;4995612;28;20167;-81
2022/06/15 10:53:51;;;;;;;4.60;2.15;;;28.80;74.70;;;;;;4995256;28;20258;-82
2022/06/15 11:02:37;;;;;;;5.97;2.38;;;28.30;76.10;;;;;;4986431;28;20726;-81
2022/06/15 11:05:14;;;;;;;7.47;2.40;;;28.40;75.40;;;;;;4995738;28;20207;-83
2022/06/15 11:07:52;;;;;;;7.03;2.60;;;28.70;74.20;;;;;;4999871;28;20175;-81
2022/06/15 11:10:34;;;;;;;12.98;2.85;;;28.00;72.60;;;;;;4999744;28;20552;-81
2022/06/15 11:13:18;;;;;;;7.45;2.95;;;28.20;74.40;;;;;;4999843;28;20238;-79
2022/06/15 11:18:41;;;;;;;9.20;2.30;;;28.80;73.80;;;;;;5000336;28;20706;-82
2022/06/15 11:21:09;;;;;;;9.27;2.40;;;29.90;74.70;;;;;;5002317;28;20172;-82
2022/06/15 11:23:45;;;;;;;9.88;2.58;;;29.70;72.80;;;;;;5002787;28;20171;-83
2022/06/15 11:29:21;;;;;;;4.40;2.17;;;28.50;73.90;;;;;;5004246;28;20174;-81
2022/06/15 11:31:48;;;;;;;7.85;2.70;;;28.90;72.40;;;;;;5003960;28;20203;-81
2022/06/15 11:34:20;;;;;;;6.65;2.53;;;29.00;73.90;;;;;;5002148;28;20202;-82
2022/06/15 11:37:03;;;;;;;10.45;3.00;;;28.60;73.00;;;;;;5001452;28;20203;-80
2022/06/15 11:39:37;;;;;;;7.07;2.67;;;28.20;74.10;;;;;;5001280;28;20172;-82
2022/06/15 11:42:10;;;;;;;6.30;2.60;;;28.30;74.30;;;;;;5001325;28;20607;-81
2022/06/15 11:44:39;;;;;;;9.85;2.70;;;27.80;73.20;;;;;;4996874;28;20171;-82
2022/06/15 11:47:24;;;;;;;5.60;2.58;;;28.10;72.60;;;;;;4998648;28;20175;-82
2022/06/15 11:50:27;;;;;;;13.18;2.50;;;27.70;75.10;;;;;;5000626;28;20207;-81
2022/06/15 11:53:09;;;;;;;6.28;2.50;;;27.70;74.40;;;;;;4995721;28;20227;-83
2022/06/15 11:55:56;;;;;;;5.82;2.30;;;28.40;73.70;;;;;;4995176;28;20249;-82
2022/06/15 11:58:52;;;;;;;7.13;2.33;;;27.70;74.80;;;;;;4997983;28;20571;-85
2022/06/15 12:01:24;;;;;;;7.93;2.75;;;28.30;74.00;;;;;;4995050;28;20194;-86
2022/06/15 12:04:35;;;;;;;9.55;2.65;;;28.40;74.60;;;;;;4995080;28;20176;-85
2022/06/15 12:07:19;;;;;;;6.20;2.47;;;28.30;73.70;;;;;;4994822;28;20171;-85
2022/06/15 12:10:29;;;;;;;7.07;2.70;;;28.50;73.00;;;;;;4995580;28;20868;-81
2022/06/15 12:13:24;;;;;;;12.35;2.75;;;28.50;73.30;;;;;;4977895;28;20229;-85
2022/06/15 12:15:55;;;;;;;10.40;2.72;;;28.20;75.50;;;;;;4972552;28;20214;-84
2022/06/15 12:18:57;;;;;;;8.65;2.25;;;27.80;73.90;;;;;;4996033;28;20167;-84
2022/06/15 12:21:37;;;;;;;11.55;2.35;;;27.60;73.30;;;;;;4985698;28;20199;-83
2022/06/15 12:24:09;;;;;;;8.60;2.30;;;27.60;75.80;;;;;;4996537;28;20176;-82
2022/06/15 12:27:21;;;;;;;11.50;2.38;;;27.80;73.90;;;;;;4993715;28;20182;-84
2022/06/15 12:30:10;;;;;;;7.10;2.05;;;27.20;73.40;;;;;;4980457;28;20591;-85
2022/06/15 12:32:42;;;;;;;8.55;2.50;;;27.60;73.40;;;;;;4991977;28;20245;-85
2022/06/15 12:35:29;;;;;;;5.35;2.05;;;27.10;72.30;;;;;;4991728;28;20290;-84
2022/06/15 12:38:03;;;;;;;5.38;2.30;;;27.00;74.10;;;;;;4992847;28;20647;-86
2022/06/15 12:40:38;;;;;;;6.95;2.60;;;26.90;73.20;;;;;;4994319;28;20218;-86
2022/06/15 12:43:11;;;;;;;6.60;2.28;;;26.40;72.80;;;;;;4991958;28;20249;-85
2022/06/15 12:45:43;;;;;;;11.68;2.67;;;25.60;75.90;;;;;;4992881;28;20188;-82
2022/06/15 12:48:30;;;;;;;16.48;2.97;;;26.60;74.20;;;;;;4993035;28;20174;-83
2022/06/15 12:51:19;;;;;;;9.32;2.30;;;26.70;76.20;;;;;;4996361;28;20230;-85
2022/06/15 12:54:13;;;;;;;6.47;2.20;;;27.40;73.80;;;;;;4984792;28;20348;-83
2022/06/15 12:57:07;;;;;;;5.47;2.13;;;27.20;72.70;;;;;;4993524;28;20195;-83
2022/06/15 12:59:43;;;;;;;5.25;2.38;;;26.90;71.80;;;;;;4992964;28;20176;-85
2022/06/15 13:02:32;;;;;;;8.73;2.28;;;27.00;71.20;;;;;;4992607;28;20194;-86
2022/06/15 13:05:22;;;;;;;10.02;2.35;;;26.90;73.30;;;;;;4993365;28;20175;-83
2022/06/15 13:08:19;;;;;;;10.05;2.40;;;26.80;73.20;;;;;;5040052;23;20233;-84
2022/06/15 13:10:53;;;;;;;6.25;2.30;;;26.20;71.10;;;;;;5008675;28;20207;-84
2022/06/15 13:13:35;;;;;;;4.80;2.13;;;25.80;72.50;;;;;;4975156;28;20182;-84
2022/06/15 13:16:15;;;;;;;8.52;2.42;;;26.10;72.80;;;;;;5007439;28;20203;-85
2022/06/15 13:18:49;;;;;;;5.50;2.40;;;25.90;72.50;;;;;;4977644;28;20211;-84
2022/06/15 13:21:29;;;;;;;4.70;2.40;;;25.40;70.50;;;;;;4975630;28;20974;-85
2022/06/15 13:24:21;;;;;;;6.95;2.58;;;25.60;72.20;;;;;;5014266;23;20302;-84
2022/06/15 13:26:55;;;;;;;6.57;2.25;;;25.90;71.90;;;;;;4992855;28;20237;-85
2022/06/15 13:29:26;;;;;;;4.07;2.20;;;26.30;75.80;;;;;;5024960;28;20168;-83
2022/06/15 13:32:01;;;;;;;7.47;2.60;;;26.80;73.30;;;;;;5026187;28;20203;-81
2022/06/15 13:34:33;;;;;;;8.93;2.40;;;26.80;73.30;;;;;;4992494;28;20213;-83
2022/06/15 13:37:23;;;;;;;4.75;2.45;;;26.00;73.70;;;;;;5026038;28;20242;-81